createdAt,value
2023-03-08T00:01:19.056Z,2.70
2023-03-08T00:03:46.533Z,7.77
2023-03-08T00:06:15.466Z,6.43
2023-03-08T00:08:42.873Z,7.67
2023-03-08T00:11:11.487Z,2.60
2023-03-08T00:13:38.247Z,3.97
2023-03-08T00:16:07.532Z,5.03
2023-03-08T00:18:35.379Z,4.77
2023-03-08T00:21:07.868Z,7.33
2023-03-08T00:23:34.978Z,7.33
2023-03-08T00:26:01.489Z,5.70
2023-03-08T00:28:28.359Z,4.30
2023-03-08T00:31:04.130Z,5.20
2023-03-08T00:33:32.966Z,3.87
2023-03-08T00:36:05.356Z,5.37
2023-03-08T00:38:33.908Z,3.70
2023-03-08T00:41:00.487Z,4.90
2023-03-08T00:43:27.861Z,4.80
2023-03-08T00:45:54.405Z,2.73
2023-03-08T00:48:21.360Z,2.07
2023-03-08T00:50:48.426Z,5.20
2023-03-08T00:53:15.213Z,4.13
2023-03-08T00:55:56.093Z,8.00
2023-03-08T00:58:23.988Z,7.17
2023-03-08T01:00:50.767Z,5.70
2023-03-08T01:03:18.308Z,1.90
2023-03-08T01:05:50.335Z,4.20
2023-03-08T01:08:18.208Z,2.37
2023-03-08T01:10:58.748Z,15.90
2023-03-08T01:13:32.475Z,3.43
2023-03-08T01:15:59.925Z,3.53
2023-03-08T01:18:26.718Z,4.17
2023-03-08T01:21:04.042Z,3.30
2023-03-08T01:23:31.308Z,4.67
2023-03-08T01:26:03.117Z,4.13
2023-03-08T01:28:29.997Z,3.73
2023-03-08T01:31:04.794Z,3.57
2023-03-08T01:33:31.817Z,4.37
2023-03-08T01:35:58.318Z,5.37
2023-03-08T01:38:25.089Z,7.37
2023-03-08T01:40:58.923Z,4.73
2023-03-08T01:43:31.127Z,3.17
2023-03-08T01:46:31.043Z,6.67
2023-03-08T01:49:14.242Z,6.30
2023-03-08T01:51:44.052Z,3.80
2023-03-08T01:54:18.073Z,8.40
2023-03-08T01:56:46.954Z,4.83
2023-03-08T01:59:14.621Z,4.07
2023-03-08T02:01:41.624Z,4.03
2023-03-08T02:04:09.689Z,3.27
2023-03-08T02:06:36.207Z,7.17
2023-03-08T02:09:05.138Z,4.63
2023-03-08T02:11:37.226Z,6.30
2023-03-08T02:14:04.359Z,3.73
2023-03-08T02:16:31.245Z,4.70
2023-03-08T02:19:01.050Z,4.97
2023-03-08T02:21:29.296Z,5.53
2023-03-08T02:23:56.166Z,7.17
2023-03-08T02:26:23.522Z,5.03
2023-03-08T02:28:50.044Z,7.93
2023-03-08T02:31:16.653Z,3.57
2023-03-08T02:33:43.198Z,5.37
2023-03-08T02:36:10.344Z,7.27
2023-03-08T02:38:37.516Z,6.57
2023-03-08T02:41:04.074Z,8.07
2023-03-08T02:43:30.547Z,4.70
2023-03-08T02:45:57.105Z,5.77
2023-03-08T02:48:23.542Z,4.00
2023-03-08T02:50:50.161Z,4.60
2023-03-08T02:53:16.824Z,4.43
2023-03-08T02:55:43.340Z,5.60
2023-03-08T02:58:10.447Z,5.77
2023-03-08T03:00:38.464Z,7.40
2023-03-08T03:03:05.109Z,4.33
2023-03-08T03:05:31.806Z,4.83
2023-03-08T03:07:59.253Z,8.40
2023-03-08T03:10:26.221Z,7.03
2023-03-08T03:12:52.977Z,4.20
2023-03-08T03:15:19.525Z,4.90
2023-03-08T03:17:46.052Z,7.30
2023-03-08T03:20:13.088Z,8.53
2023-03-08T03:22:39.634Z,6.93
2023-03-08T03:25:06.475Z,5.30
2023-03-08T03:27:32.974Z,6.53
2023-03-08T03:29:59.523Z,5.80
2023-03-08T03:32:26.065Z,6.13
2023-03-08T03:34:52.746Z,7.20
2023-03-08T03:37:19.403Z,5.43
2023-03-08T03:39:45.916Z,7.03
2023-03-08T03:42:12.477Z,7.03
2023-03-08T03:44:39.092Z,6.40
2023-03-08T03:47:06.374Z,5.97
2023-03-08T03:49:32.874Z,7.63
2023-03-08T03:51:59.336Z,6.63
2023-03-08T03:54:26.263Z,5.67
2023-03-08T03:56:52.800Z,7.17
2023-03-08T03:59:19.323Z,5.47
2023-03-08T04:01:45.837Z,5.63
2023-03-08T04:04:12.386Z,6.73
2023-03-08T04:06:39.155Z,5.53
2023-03-08T04:09:08.312Z,6.53
2023-03-08T04:11:37.790Z,4.80
2023-03-08T04:14:04.991Z,21.87
2023-03-08T04:16:34.037Z,5.53
2023-03-08T04:19:03.437Z,6.93
2023-03-08T04:21:30.924Z,4.63
2023-03-08T04:23:59.521Z,6.40
2023-03-08T04:26:27.092Z,6.13
2023-03-08T04:28:53.696Z,7.07
2023-03-08T04:31:23.481Z,4.37
2023-03-08T04:33:50.725Z,7.13
2023-03-08T04:36:18.291Z,9.80
2023-03-08T04:38:46.058Z,5.83
2023-03-08T04:41:14.702Z,8.37
2023-03-08T04:43:48.293Z,5.73
2023-03-08T04:46:16.242Z,7.63
2023-03-08T04:48:42.863Z,7.90
2023-03-08T04:51:11.963Z,6.40
2023-03-08T04:53:39.340Z,6.70
2023-03-08T04:56:06.901Z,4.53
2023-03-08T04:58:33.918Z,8.13
2023-03-08T05:01:00.504Z,5.17
2023-03-08T05:03:27.312Z,4.80
2023-03-08T05:05:55.927Z,4.73
2023-03-08T05:08:22.880Z,6.33
2023-03-08T05:10:54.223Z,3.17
2023-03-08T05:13:20.831Z,6.97
2023-03-08T05:15:47.371Z,5.17
2023-03-08T05:18:13.925Z,5.53
2023-03-08T05:20:40.630Z,7.13
2023-03-08T05:23:07.283Z,5.77
2023-03-08T05:25:34.491Z,8.37
2023-03-08T05:28:01.007Z,3.40
2023-03-08T05:30:27.525Z,5.33
2023-03-08T05:32:54.017Z,3.40
2023-03-08T05:35:20.583Z,8.33
2023-03-08T05:37:47.039Z,5.90
2023-03-08T05:40:13.687Z,4.37
2023-03-08T05:42:40.235Z,4.13
2023-03-08T05:45:07.363Z,8.30
2023-03-08T05:47:33.900Z,4.70
2023-03-08T05:50:00.379Z,7.73
2023-03-08T05:52:26.941Z,6.20
2023-03-08T05:54:53.478Z,12.10
2023-03-08T05:57:19.973Z,9.40
2023-03-08T05:59:46.494Z,11.00
2023-03-08T06:02:13.013Z,14.40
2023-03-08T06:04:39.572Z,10.30
2023-03-08T06:07:06.117Z,13.03
2023-03-08T06:09:32.630Z,16.70
2023-03-08T06:11:59.072Z,14.20
2023-03-08T06:14:25.668Z,15.23
2023-03-08T06:16:52.344Z,11.60
2023-03-08T06:19:18.862Z,12.60
2023-03-08T06:21:45.311Z,13.90
2023-03-08T06:24:11.755Z,19.37
2023-03-08T06:26:38.339Z,13.73
2023-03-08T06:29:04.838Z,13.00
2023-03-08T06:31:31.367Z,12.63
2023-03-08T06:33:57.994Z,11.43
2023-03-08T06:36:24.555Z,13.23
2023-03-08T06:38:51.118Z,14.37
2023-03-08T06:41:19.848Z,16.97
2023-03-08T06:43:46.468Z,17.47
2023-03-08T06:46:17.164Z,20.10
2023-03-08T06:48:44.123Z,16.73
2023-03-08T06:51:11.194Z,19.90
2023-03-08T06:53:38.314Z,16.90
2023-03-08T06:56:06.932Z,12.47
2023-03-08T06:58:35.112Z,17.90
2023-03-08T07:01:04.314Z,19.43
2023-03-08T07:03:32.040Z,13.90
2023-03-08T07:06:06.745Z,14.40
2023-03-08T07:08:34.154Z,16.03
2023-03-08T07:11:01.429Z,14.00
2023-03-08T07:13:29.819Z,15.83
2023-03-08T07:15:56.974Z,16.03
2023-03-08T07:18:26.737Z,21.67
2023-03-08T07:20:57.033Z,15.83
2023-03-08T07:23:24.039Z,16.77
2023-03-08T07:25:50.764Z,18.40
2023-03-08T07:28:18.488Z,14.00
2023-03-08T07:30:50.037Z,21.00
2023-03-08T07:33:17.935Z,16.87
2023-03-08T07:35:44.790Z,19.27
2023-03-08T07:38:12.487Z,18.23
2023-03-08T07:40:39.217Z,18.43
2023-03-08T07:43:06.454Z,20.50
2023-03-08T07:45:33.236Z,21.13
2023-03-08T07:47:59.827Z,16.87
2023-03-08T07:50:27.402Z,13.70
2023-03-08T07:52:54.018Z,15.30
2023-03-08T07:55:21.539Z,16.67
2023-03-08T07:57:48.067Z,20.47
2023-03-08T08:00:14.861Z,19.73
2023-03-08T08:02:41.377Z,23.10
2023-03-08T08:05:08.331Z,16.37
2023-03-08T08:07:34.809Z,22.97
2023-03-08T08:10:01.291Z,20.23
2023-03-08T08:12:27.809Z,24.87
2023-03-08T08:14:54.424Z,17.20
2023-03-08T08:17:21.426Z,20.67
2023-03-08T08:19:49.362Z,23.93
2023-03-08T08:22:15.951Z,22.17
2023-03-08T08:24:42.734Z,20.10
2023-03-08T08:27:09.202Z,19.77
2023-03-08T08:29:37.649Z,20.00
2023-03-08T08:32:04.902Z,20.00
2023-03-08T08:34:31.470Z,23.70
2023-03-08T08:36:58.000Z,21.17
2023-03-08T08:39:24.567Z,24.03
2023-03-08T08:41:51.076Z,19.00
2023-03-08T08:44:17.784Z,17.93
2023-03-08T08:46:44.608Z,19.13
2023-03-08T08:49:11.333Z,21.27
2023-03-08T08:51:37.840Z,20.47
2023-03-08T08:54:06.088Z,18.17
2023-03-08T08:56:32.681Z,16.43
2023-03-08T08:59:03.165Z,18.00
2023-03-08T09:01:32.083Z,17.10
2023-03-08T09:03:59.612Z,18.37
2023-03-08T09:06:27.930Z,17.13
2023-03-08T09:08:57.797Z,18.10
2023-03-08T09:11:26.982Z,17.83
2023-03-08T09:13:54.093Z,21.93
2023-03-08T09:16:26.629Z,25.53
2023-03-08T09:18:53.707Z,26.30
2023-03-08T09:21:20.276Z,20.97
2023-03-08T09:23:46.891Z,21.47
2023-03-08T09:26:13.460Z,19.57
2023-03-08T09:28:40.383Z,22.93
2023-03-08T09:31:15.070Z,23.33
2023-03-08T09:33:43.928Z,20.13
2023-03-08T09:36:10.923Z,21.07
2023-03-08T09:38:37.739Z,21.57
2023-03-08T09:41:07.026Z,18.57
2023-03-08T09:43:47.268Z,23.77
2023-03-08T09:46:20.782Z,21.30
2023-03-08T09:48:50.958Z,21.47
2023-03-08T09:51:19.642Z,22.23
2023-03-08T09:54:01.105Z,24.20
2023-03-08T09:56:41.675Z,18.03
2023-03-08T09:59:14.805Z,20.00
2023-03-08T10:01:56.805Z,18.73
2023-03-08T10:04:35.485Z,22.83
2023-03-08T10:07:20.049Z,24.80
2023-03-08T10:10:02.051Z,20.20
2023-03-08T10:12:52.417Z,26.33
2023-03-08T10:15:22.297Z,22.17
2023-03-08T10:18:00.957Z,21.00
2023-03-08T10:20:40.820Z,23.03
2023-03-08T10:23:17.633Z,21.80
2023-03-08T10:25:45.035Z,21.30
2023-03-08T10:28:15.114Z,21.63
2023-03-08T10:30:55.039Z,20.80
2023-03-08T10:33:34.964Z,22.43
2023-03-08T10:36:21.318Z,21.37
2023-03-08T10:39:11.420Z,16.77
2023-03-08T10:41:52.982Z,15.37
2023-03-08T10:44:47.196Z,16.97
2023-03-08T10:47:21.422Z,15.43
2023-03-08T10:49:47.996Z,22.57
2023-03-08T10:52:28.169Z,21.73
2023-03-08T10:55:19.420Z,15.73
2023-03-08T10:57:53.301Z,13.13
2023-03-08T11:00:19.711Z,13.00
2023-03-08T11:02:47.831Z,17.33
2023-03-08T11:05:23.608Z,17.00
2023-03-08T11:07:56.813Z,18.90
2023-03-08T11:10:27.003Z,13.00
2023-03-08T11:13:03.925Z,15.70
2023-03-08T11:15:35.136Z,15.73
2023-03-08T11:18:28.355Z,12.33
2023-03-08T11:21:01.054Z,14.57
2023-03-08T11:23:39.941Z,12.60
2023-03-08T11:26:28.116Z,14.20
2023-03-08T11:29:31.046Z,15.27
2023-03-08T11:32:30.606Z,18.47
2023-03-08T11:35:07.024Z,13.03
2023-03-08T11:37:48.773Z,14.67
2023-03-08T11:40:25.944Z,14.97
2023-03-08T11:43:23.936Z,10.87
2023-03-08T11:46:15.587Z,13.43
2023-03-08T11:49:05.090Z,19.40
2023-03-08T11:51:45.819Z,12.83
2023-03-08T11:54:19.325Z,11.63
2023-03-08T11:56:55.459Z,11.80
2023-03-08T11:59:31.865Z,12.37
2023-03-08T12:02:07.231Z,14.13
2023-03-08T12:04:46.149Z,12.60
2023-03-08T12:07:59.807Z,16.73
2023-03-08T12:10:38.310Z,13.93
2023-03-08T12:13:20.729Z,17.40
2023-03-08T12:16:29.284Z,14.53
2023-03-08T12:19:17.392Z,14.13
2023-03-08T12:22:13.401Z,10.63
2023-03-08T12:24:59.660Z,13.23
2023-03-08T12:27:32.341Z,11.67
2023-03-08T12:30:27.503Z,12.70
2023-03-08T12:32:56.699Z,11.43
2023-03-08T12:35:23.352Z,10.80
2023-03-08T12:38:05.886Z,13.67
2023-03-08T12:40:46.065Z,13.67
2023-03-08T12:43:21.968Z,12.30
2023-03-08T12:46:03.545Z,13.23
2023-03-08T12:48:35.665Z,13.00
2023-03-08T12:51:04.078Z,12.53
2023-03-08T12:53:33.871Z,13.87
2023-03-08T12:56:03.598Z,12.60
2023-03-08T12:58:31.600Z,12.80
2023-03-08T13:01:01.284Z,14.80
2023-03-08T13:03:41.249Z,13.77
2023-03-08T13:06:22.828Z,13.67
2023-03-08T13:08:55.815Z,12.67
2023-03-08T13:11:24.405Z,12.67
2023-03-08T13:14:00.926Z,10.80
2023-03-08T13:16:36.286Z,15.13
2023-03-08T13:19:09.105Z,15.40
2023-03-08T13:21:41.717Z,15.10
2023-03-08T13:24:30.841Z,11.10
2023-03-08T13:27:21.662Z,29.27
2023-03-08T13:29:48.598Z,14.73
2023-03-08T13:32:24.456Z,12.73
2023-03-08T13:35:02.652Z,9.97
2023-03-08T13:37:30.678Z,13.27
2023-03-08T13:39:59.067Z,15.17
2023-03-08T13:42:27.699Z,9.97
2023-03-08T13:45:09.946Z,12.37
2023-03-08T13:47:39.233Z,10.23
2023-03-08T13:50:06.480Z,12.20
2023-03-08T13:52:36.785Z,11.47
2023-03-08T13:55:07.410Z,9.83
2023-03-08T13:57:38.213Z,10.53
2023-03-08T14:00:27.674Z,9.70
2023-03-08T14:02:54.921Z,10.30
2023-03-08T14:05:24.920Z,7.97
2023-03-08T14:07:59.816Z,10.97
2023-03-08T14:10:48.216Z,10.40
2023-03-08T14:13:33.494Z,10.43
2023-03-08T14:16:03.629Z,8.83
2023-03-08T14:18:36.546Z,11.13
2023-03-08T14:21:04.773Z,7.70
2023-03-08T14:23:37.868Z,9.20
2023-03-08T14:26:04.949Z,9.30
2023-03-08T14:28:40.819Z,7.10
2023-03-08T14:31:25.572Z,7.63
2023-03-08T14:34:03.860Z,9.93
2023-03-08T14:36:33.592Z,6.07
2023-03-08T14:39:00.390Z,7.67
2023-03-08T14:41:35.577Z,6.53
2023-03-08T14:44:04.902Z,16.90
2023-03-08T14:46:32.087Z,6.97
2023-03-08T14:49:04.842Z,8.00
2023-03-08T14:51:43.092Z,7.07
2023-03-08T14:54:39.376Z,6.80
2023-03-08T14:57:21.626Z,7.63
2023-03-08T14:59:49.229Z,5.33
2023-03-08T15:02:18.707Z,6.33
2023-03-08T15:04:45.910Z,5.70
2023-03-08T15:07:23.975Z,7.77
2023-03-08T15:09:51.809Z,5.03
2023-03-08T15:12:18.533Z,4.13
2023-03-08T15:14:45.169Z,8.03
2023-03-08T15:17:11.731Z,6.33
2023-03-08T15:19:38.303Z,7.50
2023-03-08T15:22:06.418Z,4.63
2023-03-08T15:32:38.918Z,5.30
2023-03-08T15:35:13.651Z,5.93
2023-03-08T15:37:41.279Z,4.80
2023-03-08T15:40:13.944Z,6.37
2023-03-08T15:42:40.715Z,4.97
2023-03-08T15:45:08.256Z,3.83
2023-03-08T15:47:34.936Z,4.10
2023-03-08T15:50:04.444Z,4.33
2023-03-08T15:52:32.808Z,6.33
2023-03-08T15:54:59.668Z,7.27
2023-03-08T15:57:26.217Z,5.30
2023-03-08T15:59:52.704Z,5.23
2023-03-08T16:02:20.804Z,3.87
2023-03-08T16:04:49.236Z,5.07
2023-03-08T16:07:17.881Z,4.80
2023-03-08T16:09:45.650Z,7.17
2023-03-08T16:12:14.413Z,4.73
2023-03-08T16:14:47.526Z,4.37
2023-03-08T16:17:17.495Z,4.23
2023-03-08T16:19:44.640Z,5.10
2023-03-08T16:22:11.420Z,5.27
2023-03-08T16:24:38.131Z,4.93
2023-03-08T16:27:04.928Z,6.23
2023-03-08T16:29:32.788Z,5.57
2023-03-08T16:31:59.805Z,4.73
2023-03-08T16:34:28.105Z,4.10
2023-03-08T16:36:55.885Z,6.50
2023-03-08T16:39:23.161Z,7.67
2023-03-08T16:41:50.082Z,6.87
2023-03-08T16:44:22.909Z,6.57
2023-03-08T16:46:49.710Z,6.50
2023-03-08T16:49:17.344Z,7.97
2023-03-08T16:51:44.369Z,6.07
2023-03-08T16:54:12.038Z,4.90
2023-03-08T16:56:40.743Z,5.43
2023-03-08T16:59:07.358Z,3.43
2023-03-08T17:01:34.922Z,4.57
2023-03-08T17:04:01.580Z,3.50
2023-03-08T17:06:30.040Z,3.57
2023-03-08T17:08:57.874Z,5.77
2023-03-08T17:11:28.086Z,5.33
2023-03-08T17:14:15.219Z,9.77
2023-03-08T17:16:41.950Z,8.23
2023-03-08T17:19:11.041Z,6.23
2023-03-08T17:21:38.580Z,5.23
2023-03-08T17:24:07.804Z,7.13
2023-03-08T17:26:40.392Z,5.37
2023-03-08T17:29:06.971Z,5.20
2023-03-08T17:31:33.707Z,6.23
2023-03-08T17:34:00.289Z,5.00
2023-03-08T17:36:27.471Z,6.50
2023-03-08T17:38:55.445Z,10.93
2023-03-08T17:41:23.218Z,7.97
2023-03-08T17:43:53.213Z,9.03
2023-03-08T17:46:23.276Z,7.77
2023-03-08T17:48:51.556Z,7.37
2023-03-08T17:51:21.724Z,6.47
2023-03-08T17:53:48.965Z,5.77
2023-03-08T17:56:18.434Z,5.37
2023-03-08T17:58:45.005Z,8.03
2023-03-08T18:01:14.939Z,5.27
2023-03-08T18:03:41.942Z,8.90
2023-03-08T18:06:15.845Z,8.90
2023-03-08T18:08:42.399Z,10.83
2023-03-08T18:11:08.879Z,12.00
2023-03-08T18:13:35.433Z,6.83
2023-03-08T18:16:04.566Z,9.17
2023-03-08T18:18:31.574Z,12.63
2023-03-08T18:21:12.182Z,5.30
2023-03-08T18:23:41.879Z,7.07
2023-03-08T18:26:10.404Z,10.27
2023-03-08T18:28:37.059Z,7.50
2023-03-08T18:31:12.036Z,8.93
2023-03-08T18:33:39.452Z,6.60
2023-03-08T18:36:06.768Z,5.27
2023-03-08T18:38:33.585Z,7.83
2023-03-08T18:41:00.099Z,11.83
2023-03-08T18:43:26.694Z,9.23
2023-03-08T18:45:55.531Z,7.90
2023-03-08T18:48:24.296Z,7.90
2023-03-08T18:50:50.974Z,7.20
2023-03-08T18:53:18.117Z,7.07
2023-03-08T18:55:59.391Z,7.60
2023-03-08T18:58:26.735Z,5.63
2023-03-08T19:00:56.233Z,8.53
2023-03-08T19:03:23.447Z,12.33
2023-03-08T19:05:50.054Z,7.80
2023-03-08T19:08:16.786Z,8.93
2023-03-08T19:10:43.381Z,8.53
2023-03-08T19:13:09.885Z,7.07
2023-03-08T19:15:38.076Z,8.10
2023-03-08T19:18:06.228Z,10.73
2023-03-08T19:20:40.537Z,8.27
2023-03-08T19:23:08.500Z,6.63
2023-03-08T19:25:59.604Z,8.90
2023-03-08T19:28:27.378Z,9.53
2023-03-08T19:30:53.875Z,9.60
2023-03-08T19:33:30.398Z,14.50
2023-03-08T19:35:57.775Z,9.53
2023-03-08T19:38:24.276Z,8.67
2023-03-08T19:40:50.734Z,9.67
2023-03-08T19:43:17.265Z,11.40
2023-03-08T19:45:48.973Z,8.73
2023-03-08T19:48:15.627Z,11.10
2023-03-08T19:50:46.347Z,9.47
2023-03-08T19:53:12.990Z,8.67
2023-03-08T19:55:48.495Z,9.17
2023-03-08T19:58:15.182Z,10.57
2023-03-08T20:00:44.156Z,9.67
2023-03-08T20:03:12.122Z,29.77
2023-03-08T20:05:46.841Z,10.23
2023-03-08T20:08:13.649Z,10.50
2023-03-08T20:10:40.387Z,10.20
2023-03-08T20:13:07.553Z,10.80
2023-03-08T20:15:34.097Z,10.73
2023-03-08T20:18:00.634Z,9.97
2023-03-08T20:20:27.150Z,11.37
2023-03-08T20:22:53.850Z,10.83
2023-03-08T20:25:20.518Z,8.60
2023-03-08T20:27:47.061Z,9.57
2023-03-08T20:30:14.735Z,9.90
2023-03-08T20:32:41.460Z,9.67
2023-03-08T20:35:13.867Z,11.23
2023-03-08T20:37:40.562Z,9.47
2023-03-08T20:40:09.213Z,11.33
2023-03-08T20:42:36.837Z,9.17
2023-03-08T20:45:07.022Z,11.23
2023-03-08T20:47:33.540Z,10.97
2023-03-08T20:50:00.158Z,23.00
2023-03-08T20:52:26.660Z,17.63
2023-03-08T20:54:53.195Z,13.17
2023-03-08T20:57:19.739Z,10.30
2023-03-08T20:59:46.261Z,9.93
2023-03-08T21:02:13.767Z,10.63
2023-03-08T21:04:40.391Z,10.03
2023-03-08T21:07:07.005Z,7.33
2023-03-08T21:09:34.134Z,8.33
2023-03-08T21:12:00.789Z,9.20
2023-03-08T21:14:29.113Z,9.73
2023-03-08T21:16:55.908Z,10.53
2023-03-08T21:19:24.221Z,10.63
2023-03-08T21:21:51.426Z,9.33
2023-03-08T21:24:20.170Z,9.77
2023-03-08T21:26:46.864Z,8.47
2023-03-08T21:29:16.470Z,9.27
2023-03-08T21:31:48.557Z,9.47
2023-03-08T21:34:15.682Z,8.47
2023-03-08T21:36:42.813Z,7.20
2023-03-08T21:39:10.198Z,7.97
2023-03-08T21:41:39.645Z,9.30
2023-03-08T21:44:13.922Z,7.03
2023-03-08T21:46:41.462Z,9.33
2023-03-08T21:49:10.356Z,8.30
2023-03-08T21:51:38.435Z,9.13
2023-03-08T21:54:06.018Z,10.57
2023-03-08T21:56:35.355Z,8.17
2023-03-08T21:59:02.697Z,7.23
2023-03-08T22:01:31.323Z,10.57
2023-03-08T22:03:58.582Z,8.63
2023-03-08T22:06:25.749Z,7.53
2023-03-08T22:08:52.508Z,12.57
2023-03-08T22:11:20.058Z,7.70
2023-03-08T22:13:52.003Z,9.87
2023-03-08T22:16:19.551Z,8.17
2023-03-08T22:18:46.441Z,8.47
2023-03-08T22:21:13.611Z,9.77
2023-03-08T22:23:40.175Z,6.77
2023-03-08T22:26:07.985Z,9.00
2023-03-08T22:28:34.561Z,7.50
2023-03-08T22:31:01.077Z,7.73
2023-03-08T22:33:27.755Z,8.47
2023-03-08T22:35:54.270Z,10.43
2023-03-08T22:38:21.097Z,8.53
2023-03-08T22:40:47.610Z,10.20
2023-03-08T22:43:14.318Z,9.40
2023-03-08T22:45:40.947Z,8.87
2023-03-08T22:48:07.425Z,8.37
2023-03-08T22:50:33.950Z,8.30
2023-03-08T22:53:00.481Z,11.07
2023-03-08T22:55:27.214Z,6.83
2023-03-08T22:57:55.719Z,6.20
2023-03-08T23:00:22.317Z,6.67
2023-03-08T23:02:49.026Z,7.03
2023-03-08T23:05:18.239Z,8.63
2023-03-08T23:07:45.265Z,7.33
2023-03-08T23:10:13.009Z,10.90
2023-03-08T23:12:39.613Z,8.83
2023-03-08T23:15:07.007Z,7.63
2023-03-08T23:17:33.991Z,7.87
2023-03-08T23:20:00.469Z,6.73
2023-03-08T23:22:27.154Z,7.73
2023-03-08T23:24:53.714Z,7.77
2023-03-08T23:27:20.272Z,6.30
2023-03-08T23:29:46.763Z,7.53
2023-03-08T23:32:13.571Z,6.97
2023-03-08T23:34:40.646Z,6.47
2023-03-08T23:37:07.172Z,6.73
2023-03-08T23:39:34.127Z,5.63
2023-03-08T23:42:00.949Z,7.03
2023-03-08T23:44:28.087Z,6.13
2023-03-08T23:46:54.611Z,10.63
2023-03-08T23:49:21.189Z,8.77
2023-03-08T23:51:47.761Z,7.40
2023-03-08T23:54:14.541Z,7.03
2023-03-08T23:56:41.670Z,8.13
2023-03-08T23:59:13.204Z,10.43
